Time;durP1;ratioP1;P1;durP2;ratioP2;P2;SDS_P1;SDS_P2;PMS_P1;PMS_P2;Temp;Humidity;BMP_temperature;BMP_pressure;BME280_temperature;BME280_humidity;BME280_pressure;Samples;Min_cycle;Max_cycle;Signal;HPM_P1;HPM_P2
2021/01/28 00:00:19;;;;;;;8.20;6.28;;;;;;;1.87;82.42;99622.78;5007118;28;20118;-73
2021/01/28 00:02:47;;;;;;;;;;;;;;;1.85;81.91;99626.66;5010572;28;20063;-74
2021/01/28 00:05:13;;;;;;;9.02;6.63;;;;;;;2.11;81.57;99613.75;5008957;28;20348;-73
2021/01/28 00:07:40;;;;;;;9.15;6.65;;;;;;;1.94;81.56;99604.97;5024106;28;20058;-73
2021/01/28 00:10:07;;;;;;;9.18;6.55;;;;;;;1.89;81.69;99610.03;4979432;28;20099;-73
2021/01/28 00:12:34;;;;;;;9.10;6.45;;;;;;;1.87;81.95;99603.16;5030724;28;20061;-73
2021/01/28 00:15:00;;;;;;;8.65;6.20;;;;;;;1.84;82.00;99615.09;5006660;28;20050;-73
2021/01/28 00:17:27;;;;;;;9.27;6.50;;;;;;;1.91;82.33;99608.00;5005062;28;20041;-74
2021/01/28 00:19:53;;;;;;;10.05;6.88;;;;;;;1.89;81.85;99603.81;4993002;28;20050;-74
2021/01/28 00:22:20;;;;;;;9.65;6.93;;;;;;;2.06;80.73;99600.03;5009633;28;20128;-74
2021/01/28 00:24:47;;;;;;;11.73;6.88;;;;;;;2.04;81.48;99611.97;5038948;28;20090;-73
2021/01/28 00:27:13;;;;;;;11.23;7.80;;;;;;;2.12;80.74;99606.53;5004517;28;20030;-74
2021/01/28 00:29:39;;;;;;;11.98;8.32;;;;;;;2.20;80.83;99601.13;5007602;28;20077;-74
2021/01/28 00:32:06;;;;;;;9.98;7.50;;;;;;;2.31;80.39;99598.03;5009739;28;20511;-74
2021/01/28 00:34:32;;;;;;;9.25;6.50;;;;;;;2.29;80.19;99602.75;5000820;28;20057;-74
2021/01/28 00:36:59;;;;;;;10.55;7.18;;;;;;;2.24;80.48;99595.22;4984448;28;20129;-73
2021/01/28 00:39:26;;;;;;;8.82;6.32;;;;;;;2.19;80.36;99589.53;4996869;28;20575;-73
2021/01/28 00:41:52;;;;;;;9.10;6.47;;;;;;;2.17;80.38;99588.03;5009380;28;20078;-73
2021/01/28 00:44:20;;;;;;;8.77;6.50;;;;;;;2.37;80.16;99583.88;5030103;28;20499;-73
2021/01/28 00:46:47;;;;;;;9.40;6.90;;;;;;;2.43;79.61;99585.00;4983177;28;20133;-73
2021/01/28 00:49:20;;;;;;;8.93;6.72;;;;;;;2.67;78.53;99587.53;5001322;28;20058;-73
2021/01/28 00:51:47;;;;;;;9.57;6.72;;;;;;;2.77;78.08;99584.59;4959597;28;20069;-74
2021/01/28 00:54:14;;;;;;;9.48;6.60;;;;;;;2.78;77.89;99588.91;5004102;28;20051;-73
2021/01/28 00:56:41;;;;;;;8.63;6.43;;;;;;;2.50;79.03;99583.28;4984086;28;20129;-73
2021/01/28 00:59:07;;;;;;;8.60;6.22;;;;;;;2.57;78.96;99587.75;4989825;28;20081;-74
2021/01/28 01:01:36;;;;;;;;;;;;;;;2.54;79.16;99576.50;4977684;28;20140;-74
2021/01/28 01:04:03;;;;;;;8.90;6.30;;;;;;;2.46;79.13;99577.41;5001416;28;19921;-73
2021/01/28 01:06:29;;;;;;;10.13;7.10;;;;;;;2.68;78.87;99571.19;4984324;28;20060;-74
2021/01/28 01:08:56;;;;;;;9.20;6.40;;;;;;;2.87;77.79;99561.75;5004367;28;20416;-74
2021/01/28 01:11:36;;;;;;;8.85;6.53;;;;;;;2.69;78.59;99572.03;4993783;28;20570;-73
2021/01/28 01:14:02;;;;;;;8.82;6.65;;;;;;;2.69;78.84;99562.13;5025278;28;20450;-72
2021/01/28 01:16:32;;;;;;;;;;;;;;;2.78;78.39;99556.63;5028438;28;20045;-74
2021/01/28 01:19:04;;;;;;;8.52;6.18;;;;;;;2.83;78.51;99551.53;4980604;28;19921;-74
2021/01/28 01:21:46;;;;;;;8.68;6.35;;;;;;;2.92;77.35;99545.06;4994147;28;20837;-73
2021/01/28 01:24:18;;;;;;;8.85;6.38;;;;;;;2.70;78.61;99546.81;5010284;28;20049;-73
2021/01/28 01:26:45;;;;;;;9.00;6.32;;;;;;;2.56;79.21;99544.91;5010230;28;20544;-74
2021/01/28 01:29:12;;;;;;;9.55;6.72;;;;;;;2.41;79.33;99544.88;4965596;28;20089;-74
2021/01/28 01:32:14;;;;;;;8.60;6.22;;;;;;;2.38;80.13;99526.41;4985177;28;20077;-74
2021/01/28 01:35:14;;;;;;;9.63;6.82;;;;;;;2.47;79.64;99537.91;5036835;28;20547;-73
2021/01/28 01:37:42;;;;;;;9.77;6.57;;;;;;;2.45;79.79;99529.19;4987747;28;20049;-73
2021/01/28 01:40:14;;;;;;;8.88;6.43;;;;;;;2.53;79.55;99523.75;4994338;28;20144;-73
2021/01/28 01:42:47;;;;;;;10.98;7.05;;;;;;;2.76;79.09;99518.34;4988894;28;20050;-73
2021/01/28 01:45:16;;;;;;;7.80;5.85;;;;;;;2.76;79.29;99526.41;4989935;28;20075;-73
2021/01/28 01:47:49;;;;;;;8.23;6.10;;;;;;;2.65;79.52;99539.28;4988389;28;20049;-74
2021/01/28 01:50:53;;;;;;;15.80;10.15;;;;;;;2.96;79.05;99527.53;4992726;28;20442;-73
2021/01/28 01:53:31;;;;;;;10.48;7.20;;;;;;;2.82;79.21;99531.03;4998693;28;20050;-73
2021/01/28 01:56:04;;;;;;;10.80;6.10;;;;;;;2.70;79.75;99536.03;5064035;28;20044;-73
2021/01/28 01:58:51;;;;;;;8.20;6.18;;;;;;;2.76;79.38;99545.25;4985578;28;20054;-73
2021/01/28 02:01:43;;;;;;;8.27;6.03;;;;;;;2.63;79.99;99543.16;5026917;28;20595;-73
2021/01/28 02:04:29;;;;;;;10.43;6.65;;;;;;;2.89;80.26;99540.06;4997095;28;20042;-73
2021/01/28 02:07:18;;;;;;;8.30;6.30;;;;;;;3.00;79.47;99542.31;5015310;28;20711;-74
2021/01/28 02:10:23;;;;;;;9.93;6.47;;;;;;;2.97;80.54;99529.22;4991471;28;20043;-74
2021/01/28 02:13:08;;;;;;;10.70;6.93;;;;;;;2.71;81.49;99528.81;4919746;28;20055;-74
2021/01/28 02:15:41;;;;;;;9.20;6.65;;;;;;;2.74;81.99;99525.75;4973126;28;20157;-73
2021/01/28 02:18:07;;;;;;;10.68;7.03;;;;;;;2.71;82.34;99518.06;4983471;28;20056;-73
2021/01/28 02:21:09;;;;;;;9.93;7.13;;;;;;;2.71;82.84;99523.44;5004810;28;20042;-74
2021/01/28 02:23:42;;;;;;;9.02;6.32;;;;;;;2.81;81.19;99524.00;4963743;28;20054;-73
2021/01/28 02:26:17;;;;;;;8.98;6.20;;;;;;;2.63;82.23;99518.97;4992701;28;20086;-74
2021/01/28 02:28:44;;;;;;;8.75;6.22;;;;;;;2.73;82.16;99521.41;4983532;28;20074;-74
2021/01/28 02:31:11;;;;;;;9.00;6.72;;;;;;;2.93;80.93;99512.59;4986040;28;20041;-72
2021/01/28 02:33:50;;;;;;;7.50;5.60;;;;;;;2.76;81.88;99512.97;4992162;28;20046;-74
2021/01/28 02:36:34;;;;;;;8.90;5.97;;;;;;;2.81;81.64;99506.00;4975039;28;20547;-74
2021/01/28 02:39:33;;;;;;;8.52;6.25;;;;;;;2.73;82.16;99499.88;4984294;28;20064;-74
2021/01/28 02:42:21;;;;;;;9.15;6.50;;;;;;;2.71;82.41;99496.53;4992710;28;20708;-74
2021/01/28 02:44:55;;;;;;;7.72;5.68;;;;;;;2.44;82.95;99493.41;5005536;28;20042;-74
2021/01/28 02:47:40;;;;;;;9.13;6.80;;;;;;;2.39;83.17;99494.97;4994019;28;20507;-75
2021/01/28 02:50:30;;;;;;;8.60;6.30;;;;;;;2.35;83.00;99497.19;5024933;28;20135;-74
2021/01/28 02:52:59;;;;;;;8.25;5.88;;;;;;;2.37;82.62;99489.78;4993859;28;20049;-73
2021/01/28 02:55:27;;;;;;;7.22;5.25;;;;;;;2.35;82.79;99489.97;4992515;28;20062;-74
2021/01/28 02:57:53;;;;;;;9.30;6.20;;;;;;;2.44;82.59;99487.19;5002926;28;20046;-74
2021/01/28 03:00:25;;;;;;;7.90;5.90;;;;;;;2.38;82.73;99488.78;5008205;28;20060;-73
2021/01/28 03:02:52;;;;;;;6.80;5.20;;;;;;;2.38;82.61;99491.47;4993875;28;20048;-74
2021/01/28 03:05:32;;;;;;;7.85;5.25;;;;;;;2.62;81.89;99490.41;4982648;28;20116;-75
2021/01/28 03:07:59;;;;;;;8.45;5.63;;;;;;;2.47;82.72;99482.28;4991254;28;20069;-75
2021/01/28 03:10:26;;;;;;;7.60;5.30;;;;;;;2.35;82.57;99476.53;4997431;28;20041;-74
2021/01/28 03:13:04;;;;;;;8.27;5.30;;;;;;;2.33;82.83;99480.41;5019595;28;20069;-73
2021/01/28 03:15:51;;;;;;;7.80;5.80;;;;;;;2.34;82.86;99471.34;4970269;28;20041;-74
2021/01/28 03:18:19;;;;;;;9.68;5.97;;;;;;;2.39;82.38;99474.31;5026182;28;20506;-74
2021/01/28 03:20:46;;;;;;;7.45;5.55;;;;;;;2.56;81.91;99470.44;4980126;28;20073;-74
2021/01/28 03:23:40;;;;;;;9.80;5.95;;;;;;;2.49;82.12;99461.44;5003235;28;20046;-74
2021/01/28 03:26:16;;;;;;;8.65;6.25;;;;;;;2.52;82.27;99466.44;4992731;28;20122;-74
2021/01/28 03:28:44;;;;;;;8.07;6.00;;;;;;;2.79;80.56;99458.75;4991388;28;20054;-74
2021/01/28 03:31:16;;;;;;;8.48;5.88;;;;;;;2.76;81.02;99454.63;4983172;28;20525;-74
2021/01/28 03:33:43;;;;;;;8.68;6.30;;;;;;;2.94;80.09;99463.16;4975889;28;20077;-74
2021/01/28 03:36:10;;;;;;;8.02;5.45;;;;;;;3.04;79.33;99452.09;5010742;28;20065;-73
2021/01/28 03:38:37;;;;;;;8.60;5.63;;;;;;;3.20;79.08;99440.28;4987554;28;20060;-73
2021/01/28 03:41:04;;;;;;;7.97;5.60;;;;;;;3.15;79.47;99440.84;5009064;28;20140;-74
2021/01/28 03:43:31;;;;;;;7.53;5.30;;;;;;;3.23;78.70;99435.38;4992934;28;20045;-74
2021/01/28 03:45:58;;;;;;;8.20;5.25;;;;;;;3.25;78.94;99427.94;5009939;28;20065;-74
2021/01/28 03:48:30;;;;;;;6.88;5.13;;;;;;;3.43;77.99;99432.09;5005919;28;20061;-74
2021/01/28 03:51:19;;;;;;;7.18;4.90;;;;;;;3.24;78.61;99431.66;4993798;28;20049;-73
2021/01/28 03:54:17;;;;;;;6.63;4.57;;;;;;;3.19;79.02;99419.78;4992512;28;20414;-73
2021/01/28 03:56:48;;;;;;;6.65;4.97;;;;;;;3.19;79.23;99409.84;4994050;28;20045;-73
2021/01/28 03:59:15;;;;;;;5.97;4.50;;;;;;;3.06;79.53;99408.88;5006407;28;20045;-73
2021/01/28 04:02:09;;;;;;;6.90;4.95;;;;;;;3.07;79.76;99410.53;5003644;28;20076;-74
2021/01/28 04:05:03;;;;;;;7.40;5.50;;;;;;;3.00;79.53;99399.69;4979251;28;20045;-73
2021/01/28 04:07:50;;;;;;;7.13;4.95;;;;;;;3.16;78.87;99402.13;5036797;28;20045;-74
2021/01/28 04:10:24;;;;;;;7.45;4.70;;;;;;;2.89;80.23;99400.13;4990969;28;20415;-74
2021/01/28 04:12:53;;;;;;;7.07;4.70;;;;;;;3.29;78.59;99406.84;4992381;28;20054;-74
2021/01/28 04:15:33;;;;;;;6.20;4.35;;;;;;;3.20;78.53;99408.81;4993575;28;20053;-75
2021/01/28 04:18:03;;;;;;;6.13;4.55;;;;;;;3.39;77.82;99406.56;4993707;28;20054;-74
2021/01/28 04:20:43;;;;;;;6.15;4.63;;;;;;;3.49;77.74;99402.53;4995490;28;20049;-74
2021/01/28 04:23:13;;;;;;;6.05;4.32;;;;;;;3.24;78.19;99403.91;4989970;28;20049;-74
2021/01/28 04:26:03;;;;;;;7.95;5.40;;;;;;;3.39;78.58;99401.19;4996804;28;20419;-74
2021/01/28 04:28:32;;;;;;;5.72;4.22;;;;;;;3.30;79.95;99393.22;4983433;28;20038;-74
2021/01/28 04:31:18;;;;;;;6.65;4.65;;;;;;;3.31;79.64;99389.50;5006508;28;20050;-73
2021/01/28 04:33:45;;;;;;;7.90;5.00;;;;;;;3.41;78.95;99382.97;5003602;28;20137;-74
2021/01/28 04:36:20;;;;;;;8.15;4.45;;;;;;;3.42;77.91;99385.47;5021806;28;20045;-72
2021/01/28 04:39:16;;;;;;;6.53;4.85;;;;;;;3.46;78.50;99386.78;4994184;28;20124;-75
2021/01/28 04:41:44;;;;;;;5.78;4.53;;;;;;;3.52;78.22;99379.75;4992848;28;20781;-75
2021/01/28 04:44:12;;;;;;;6.90;5.15;;;;;;;3.39;78.48;99371.56;4997489;28;20709;-75
2021/01/28 04:46:58;;;;;;;5.85;4.22;;;;;;;3.38;78.59;99370.72;4997486;28;20045;-74
2021/01/28 04:49:43;;;;;;;6.35;4.50;;;;;;;3.49;78.17;99372.91;4981789;28;20045;-74
2021/01/28 04:52:26;;;;;;;7.45;4.43;;;;;;;3.33;78.90;99371.28;5000345;28;20142;-75
2021/01/28 04:55:13;;;;;;;6.88;4.45;;;;;;;3.49;78.52;99380.13;5015594;28;20041;-74
2021/01/28 04:57:45;;;;;;;5.53;4.07;;;;;;;3.34;78.43;99372.97;5017351;28;20065;-74
2021/01/28 05:00:16;;;;;;;6.13;4.20;;;;;;;3.58;77.42;99365.53;5011355;28;20098;-74
2021/01/28 05:03:25;;;;;;;5.15;3.80;;;;;;;3.55;76.88;99368.59;4996054;28;20111;-74
2021/01/28 05:06:15;;;;;;;7.22;3.95;;;;;;;3.62;78.06;99361.44;4993048;28;20065;-74
2021/01/28 05:09:06;;;;;;;6.25;4.45;;;;;;;3.67;78.82;99356.31;5025152;28;20058;-74
2021/01/28 05:11:58;;;;;;;6.40;4.35;;;;;;;3.71;78.56;99352.19;4984703;28;20060;-74
2021/01/28 05:14:38;;;;;;;5.85;3.97;;;;;;;3.26;79.46;99356.91;5025525;28;20646;-74
2021/01/28 05:17:29;;;;;;;7.95;4.43;;;;;;;3.35;79.42;99352.25;5000017;28;20126;-74
2021/01/28 05:20:20;;;;;;;5.80;3.85;;;;;;;3.34;78.72;99351.41;5016354;28;20057;-74
2021/01/28 05:23:27;;;;;;;5.22;3.30;;;;;;;3.46;78.89;99346.38;4997429;28;20174;-75
2021/01/28 05:25:54;;;;;;;6.55;4.10;;;;;;;3.60;77.60;99336.53;5012901;28;20046;-75
2021/01/28 05:28:34;;;;;;;5.22;3.58;;;;;;;3.30;78.72;99339.34;4994081;28;20084;-75
2021/01/28 05:31:33;;;;;;;5.35;3.50;;;;;;;3.43;77.80;99338.69;5003032;28;20057;-75
2021/01/28 05:34:31;;;;;;;5.35;3.60;;;;;;;3.55;77.67;99337.13;5003501;28;20715;-74
2021/01/28 05:37:29;;;;;;;5.53;3.53;;;;;;;3.61;76.96;99333.66;4990704;28;20049;-74
2021/01/28 05:40:24;;;;;;;5.95;3.72;;;;;;;3.68;76.77;99328.34;4979994;28;20041;-74
2021/01/28 05:43:35;;;;;;;5.80;3.78;;;;;;;3.78;76.92;99325.31;5028889;28;20041;-75
2021/01/28 05:46:13;;;;;;;5.47;3.75;;;;;;;3.69;76.72;99321.91;5005085;28;20053;-74
2021/01/28 05:49:11;;;;;;;5.45;3.28;;;;;;;3.64;76.86;99318.97;4993563;28;20052;-74
2021/01/28 05:52:11;;;;;;;4.57;2.92;;;;;;;3.60;76.74;99317.69;4972231;28;20045;-75
2021/01/28 05:55:06;;;;;;;7.20;3.13;;;;;;;3.78;76.06;99315.38;4983097;28;20083;-75
2021/01/28 05:57:52;;;;;;;4.65;3.08;;;;;;;3.59;76.86;99318.72;4995828;28;20050;-75
2021/01/28 06:00:34;;;;;;;4.68;2.88;;;;;;;3.78;75.82;99315.38;4991992;28;20042;-75
2021/01/28 06:03:31;;;;;;;4.88;2.88;;;;;;;3.76;76.07;99312.03;4976901;28;20078;-75
2021/01/28 06:06:54;;;;;;;8.00;3.55;;;;;;;3.82;76.16;99300.47;4981453;28;20087;-74
2021/01/28 06:10:21;;;;;;;4.85;3.15;;;;;;;3.71;76.24;99306.41;4998897;28;20050;-75
2021/01/28 06:13:54;;;;;;;4.75;3.08;;;;;;;3.69;76.10;99311.16;4997330;28;20050;-75
2021/01/28 06:17:10;;;;;;;5.95;3.05;;;;;;;3.79;76.51;99306.28;5029499;28;20077;-74
2021/01/28 06:20:09;;;;;;;6.55;3.50;;;;;;;3.73;76.58;99300.81;5033400;28;20056;-74
2021/01/28 06:22:44;;;;;;;7.00;4.30;;;;;;;3.73;76.55;99306.22;5016968;28;20136;-74
2021/01/28 06:25:56;;;;;;;7.45;3.55;;;;;;;3.70;77.05;99297.47;5050023;28;20533;-74
2021/01/28 06:29:02;;;;;;;7.28;3.92;;;;;;;3.68;77.23;99304.09;5000777;28;20056;-74
2021/01/28 06:31:40;;;;;;;7.22;4.00;;;;;;;3.71;76.71;99295.63;5033344;28;20040;-75
2021/01/28 06:34:59;;;;;;;7.93;4.00;;;;;;;3.77;77.11;99292.16;5019495;28;20052;-74
2021/01/28 06:37:57;;;;;;;6.82;3.70;;;;;;;3.70;77.42;99285.88;5048473;28;20049;-74
2021/01/28 06:40:52;;;;;;;5.80;3.47;;;;;;;3.74;77.17;99286.31;5049592;28;20049;-74
2021/01/28 06:44:12;;;;;;;6.85;3.80;;;;;;;3.83;77.01;99283.25;5021783;28;20049;-75
2021/01/28 06:47:08;;;;;;;7.32;3.80;;;;;;;3.90;76.61;99288.72;5011310;28;20040;-74
2021/01/28 06:50:14;;;;;;;6.53;3.97;;;;;;;3.75;77.03;99272.66;5015971;28;20050;-75
2021/01/28 06:53:00;;;;;;;8.32;4.38;;;;;;;3.82;77.10;99270.81;4948059;28;20049;-74
2021/01/28 06:56:02;;;;;;;7.50;4.07;;;;;;;3.88;77.27;99272.72;5018301;28;20505;-74
2021/01/28 06:59:26;;;;;;;6.53;3.88;;;;;;;3.78;76.77;99272.25;5023708;28;20526;-75
2021/01/28 07:02:33;;;;;;;6.03;3.50;;;;;;;3.71;77.91;99276.75;5008304;28;20050;-75
2021/01/28 07:05:38;;;;;;;6.82;4.00;;;;;;;3.93;77.32;99264.91;5016223;28;20060;-74
2021/01/28 07:08:42;;;;;;;8.00;4.28;;;;;;;3.91;76.87;99258.03;4993373;28;20045;-74
2021/01/28 07:11:32;;;;;;;6.40;4.30;;;;;;;3.89;77.67;99258.22;5005676;28;20052;-74
2021/01/28 07:14:17;;;;;;;7.65;4.38;;;;;;;3.87;78.00;99254.91;5018270;28;20072;-74
2021/01/28 07:17:09;;;;;;;9.32;4.03;;;;;;;3.87;77.09;99254.91;5071877;28;20043;-74
2021/01/28 07:19:39;;;;;;;10.30;4.80;;;;;;;3.84;77.45;99249.91;4968551;28;20132;-74
2021/01/28 07:22:28;;;;;;;8.50;4.80;;;;;;;3.77;78.26;99242.81;4988284;28;20049;-74
2021/01/28 07:25:20;;;;;;;9.13;4.75;;;;;;;3.59;78.88;99235.22;5001966;28;20532;-74
2021/01/28 07:28:02;;;;;;;9.80;4.95;;;;;;;3.38;79.89;99232.56;4996874;28;20049;-75
2021/01/28 07:30:36;;;;;;;8.45;4.85;;;;;;;3.80;78.63;99243.25;5005198;28;20089;-75
2021/01/28 07:33:02;;;;;;;7.78;4.90;;;;;;;3.90;78.03;99235.66;5001850;28;20128;-74
2021/01/28 07:36:24;;;;;;;10.20;4.78;;;;;;;3.88;77.67;99226.91;4990319;28;20042;-74
2021/01/28 07:39:35;;;;;;;8.38;5.10;;;;;;;3.75;77.80;99220.63;5025472;28;20045;-74
2021/01/28 07:42:22;;;;;;;9.88;5.32;;;;;;;3.91;77.87;99218.44;4996833;28;20049;-74
2021/01/28 07:45:32;;;;;;;12.70;5.38;;;;;;;3.94;78.14;99223.44;5022922;28;20571;-74
2021/01/28 07:48:24;;;;;;;9.15;5.35;;;;;;;4.07;78.69;99211.91;4957583;28;20076;-74
2021/01/28 07:51:48;;;;;;;10.70;5.18;;;;;;;3.94;78.91;99209.97;5011282;28;20055;-74
2021/01/28 07:54:23;;;;;;;8.68;4.97;;;;;;;3.95;78.69;99208.94;4989912;28;20042;-74
2021/01/28 07:56:51;;;;;;;9.95;5.57;;;;;;;3.87;78.76;99206.38;5017646;28;20116;-74
2021/01/28 07:59:48;;;;;;;11.35;4.75;;;;;;;4.00;77.99;99203.78;4995247;28;20128;-73
2021/01/28 08:02:22;;;;;;;9.35;4.93;;;;;;;4.02;78.27;99204.41;5000180;28;20124;-74
2021/01/28 08:04:52;;;;;;;10.30;5.93;;;;;;;4.05;78.10;99203.19;5011556;28;20111;-74
2021/01/28 08:07:23;;;;;;;8.25;5.20;;;;;;;3.97;77.92;99201.47;5027728;28;20693;-74
2021/01/28 08:09:52;;;;;;;11.30;5.22;;;;;;;4.08;77.72;99199.28;5009243;28;20053;-74
2021/01/28 08:12:26;;;;;;;;;;;;;;;4.07;78.50;99205.69;4995325;28;20053;-74
2021/01/28 08:14:53;;;;;;;13.40;6.60;;;;;;;3.87;80.52;99203.69;4993113;28;20339;-73
2021/01/28 08:17:24;;;;;;;11.43;5.57;;;;;;;4.00;81.50;99211.88;4979829;28;20535;-74
2021/01/28 08:20:10;;;;;;;11.20;5.85;;;;;;;3.91;81.83;99210.34;4985082;28;20054;-74
2021/01/28 08:22:48;;;;;;;11.95;5.45;;;;;;;3.73;83.10;99210.03;5027074;28;20072;-74
2021/01/28 08:25:15;;;;;;;11.90;5.72;;;;;;;3.76;83.22;99206.13;4989327;28;20519;-74
2021/01/28 08:27:42;;;;;;;10.13;5.60;;;;;;;3.84;82.60;99201.41;5007783;28;20411;-73
2021/01/28 08:30:15;;;;;;;13.93;6.22;;;;;;;3.96;82.69;99204.38;4973131;28;20041;-74
2021/01/28 08:32:46;;;;;;;16.25;6.35;;;;;;;4.00;82.47;99201.09;5033711;28;20043;-74
2021/01/28 08:35:21;;;;;;;10.18;5.82;;;;;;;3.92;82.49;99197.72;5006669;28;20056;-74
2021/01/28 08:37:48;;;;;;;13.68;7.05;;;;;;;3.92;82.85;99193.16;4993906;28;20041;-75
2021/01/28 08:40:19;;;;;;;16.45;6.95;;;;;;;3.55;84.03;99194.38;5005055;28;20050;-74
2021/01/28 08:42:46;;;;;;;12.93;7.55;;;;;;;3.24;84.41;99200.13;4969809;28;20054;-74
2021/01/28 08:45:18;;;;;;;13.18;7.18;;;;;;;3.10;84.73;99197.53;4969240;28;20132;-74
2021/01/28 08:47:56;;;;;;;16.42;8.15;;;;;;;3.15;84.93;99205.84;4985120;28;20081;-74
2021/01/28 08:50:25;;;;;;;17.70;8.82;;;;;;;3.36;85.07;99197.75;4989891;28;20555;-74
2021/01/28 08:52:52;;;;;;;17.27;9.60;;;;;;;3.29;85.22;99195.00;4997972;28;20098;-74
2021/01/28 08:55:21;;;;;;;14.57;8.85;;;;;;;3.35;84.40;99196.91;5005069;28;20564;-74
2021/01/28 08:57:48;;;;;;;;;;;;;;;3.70;83.84;99183.50;4940599;28;20408;-74
2021/01/28 09:00:20;;;;;;;18.38;8.10;;;;;;;3.68;84.42;99177.47;4997841;28;19982;-74
2021/01/28 09:02:51;;;;;;;15.20;8.00;;;;;;;3.50;83.54;99172.56;4988857;28;20038;-74
2021/01/28 09:05:27;;;;;;;12.38;7.15;;;;;;;3.28;83.93;99173.66;5061012;28;20050;-74
2021/01/28 09:07:54;;;;;;;13.15;8.27;;;;;;;3.19;84.35;99159.50;5011820;28;20037;-74
2021/01/28 09:10:34;;;;;;;17.65;8.65;;;;;;;3.37;84.10;99156.34;4989679;28;20050;-74
2021/01/28 09:13:23;;;;;;;15.75;8.18;;;;;;;3.33;84.17;99169.34;4987715;28;20090;-74
2021/01/28 09:16:04;;;;;;;16.45;7.22;;;;;;;3.30;83.27;99164.34;4982385;28;20064;-73
2021/01/28 09:18:33;;;;;;;12.27;6.63;;;;;;;3.28;83.59;99158.34;5019073;28;20054;-74
2021/01/28 09:21:24;;;;;;;15.73;8.75;;;;;;;3.25;83.44;99153.34;5037908;28;20138;-74
2021/01/28 09:23:59;;;;;;;16.00;8.88;;;;;;;3.25;83.17;99153.34;4985206;28;20073;-73
2021/01/28 09:26:32;;;;;;;19.60;10.75;;;;;;;3.17;83.21;99150.78;4989380;28;20574;-74
2021/01/28 09:29:19;;;;;;;17.55;10.57;;;;;;;3.23;83.54;99158.06;5000702;28;20141;-75
2021/01/28 09:31:48;;;;;;;16.65;8.40;;;;;;;3.21;83.35;99152.06;5011805;28;20041;-74
2021/01/28 09:34:34;;;;;;;18.45;8.38;;;;;;;3.42;83.00;99144.97;5009814;28;20061;-74
2021/01/28 09:37:06;;;;;;;19.48;9.23;;;;;;;3.47;82.32;99145.19;5007318;28;20507;-74
2021/01/28 09:39:37;;;;;;;18.88;10.27;;;;;;;3.64;82.06;99146.56;4998137;28;20057;-74
2021/01/28 09:42:12;;;;;;;17.60;9.13;;;;;;;3.59;81.47;99146.31;5053578;28;20077;-74
2021/01/28 09:44:44;;;;;;;16.02;9.30;;;;;;;3.91;80.68;99148.38;5025783;28;20058;-74
2021/01/28 09:47:13;;;;;;;18.42;7.80;;;;;;;4.02;79.47;99147.81;5001384;28;20686;-74
2021/01/28 09:49:40;;;;;;;14.63;7.25;;;;;;;3.90;79.14;99138.63;5006903;28;20045;-74
2021/01/28 09:52:26;;;;;;;12.65;7.05;;;;;;;4.12;79.15;99130.44;4980766;28;20046;-74
2021/01/28 09:55:19;;;;;;;16.85;7.13;;;;;;;4.14;78.97;99123.81;5025265;28;20087;-74
2021/01/28 09:57:46;;;;;;;15.93;8.52;;;;;;;3.90;80.11;99122.44;5046445;28;20049;-74
2021/01/28 10:00:16;;;;;;;13.60;7.63;;;;;;;3.78;79.76;99107.91;4988258;28;20125;-74
2021/01/28 10:02:50;;;;;;;14.18;7.30;;;;;;;3.76;80.12;99103.75;5060766;28;20055;-74
2021/01/28 10:05:20;;;;;;;18.80;8.80;;;;;;;3.77;80.31;99106.25;4989248;28;20056;-74
2021/01/28 10:07:48;;;;;;;15.35;8.25;;;;;;;3.72;79.95;99099.78;4996394;28;20038;-74
2021/01/28 10:10:23;;;;;;;12.30;6.90;;;;;;;3.71;79.34;99090.88;5012047;28;20060;-74
2021/01/28 10:12:53;;;;;;;14.80;7.78;;;;;;;3.77;79.57;99087.38;5035976;28;20506;-74
2021/01/28 10:15:20;;;;;;;16.35;8.90;;;;;;;3.78;79.74;99082.81;5012766;28;20057;-74
2021/01/28 10:17:46;;;;;;;16.48;7.28;;;;;;;3.90;79.04;99082.03;4994162;28;20419;-74
2021/01/28 10:20:13;;;;;;;13.75;6.97;;;;;;;3.81;78.81;99079.72;5011809;28;20071;-74
2021/01/28 10:22:41;;;;;;;11.00;7.10;;;;;;;3.90;79.14;99079.34;5023143;28;20052;-74
2021/01/28 10:25:13;;;;;;;13.30;7.20;;;;;;;3.74;78.71;99076.16;4984620;28;20052;-74
2021/01/28 10:27:40;;;;;;;11.32;7.03;;;;;;;3.71;79.00;99072.00;4992692;28;20073;-74
2021/01/28 10:30:09;;;;;;;16.33;7.28;;;;;;;3.79;79.08;99063.75;5006163;28;20132;-74
2021/01/28 10:32:36;;;;;;;;;;;;;;;3.68;79.03;99057.06;5006158;28;20053;-75
2021/01/28 10:35:05;;;;;;;11.57;6.97;;;;;;;3.79;78.48;99042.22;5042064;28;19982;-74
2021/01/28 10:37:31;;;;;;;12.43;7.57;;;;;;;3.82;78.52;99040.94;5005182;28;20510;-74
2021/01/28 10:39:58;;;;;;;14.57;7.88;;;;;;;3.88;78.28;99038.28;5044609;28;20131;-73
2021/01/28 10:42:38;;;;;;;11.68;7.18;;;;;;;3.91;78.08;99029.78;5009291;28;20125;-74
2021/01/28 10:45:08;;;;;;;20.60;6.90;;;;;;;4.14;77.31;99017.84;5074979;28;20046;-74
2021/01/28 10:47:34;;;;;;;15.20;7.90;;;;;;;4.06;77.62;99015.34;5005327;28;20050;-74
2021/01/28 10:50:10;;;;;;;12.90;7.35;;;;;;;4.14;76.86;99007.91;4994545;28;20060;-73
2021/01/28 10:52:36;;;;;;;16.17;7.85;;;;;;;4.53;75.78;99006.25;4999080;28;20049;-73
2021/01/28 10:55:05;;;;;;;13.38;6.70;;;;;;;4.22;77.08;99004.97;4995733;28;20057;-74
2021/01/28 10:57:32;;;;;;;14.43;6.07;;;;;;;4.39;76.04;99002.75;5038888;28;20085;-74
2021/01/28 10:59:58;;;;;;;10.73;5.63;;;;;;;4.30;76.14;99001.25;5039079;28;20417;-73
2021/01/28 11:02:25;;;;;;;8.55;5.57;;;;;;;4.20;76.75;98995.44;5028319;28;20045;-73
2021/01/28 11:04:51;;;;;;;17.70;6.30;;;;;;;4.19;75.59;98991.06;5024587;28;20564;-74
2021/01/28 11:07:18;;;;;;;11.18;6.20;;;;;;;4.12;76.83;98987.56;5008172;28;20041;-74
2021/01/28 11:10:05;;;;;;;10.23;6.10;;;;;;;4.07;77.16;99000.81;4977502;28;20078;-74
2021/01/28 11:12:31;;;;;;;10.38;5.60;;;;;;;4.12;76.54;98990.25;5000910;28;20043;-73
2021/01/28 11:14:58;;;;;;;12.25;6.13;;;;;;;4.06;76.98;98996.47;5076514;28;20098;-73
2021/01/28 11:17:24;;;;;;;14.65;6.38;;;;;;;4.40;76.65;98988.22;5029446;28;20506;-74
2021/01/28 11:19:51;;;;;;;11.27;6.07;;;;;;;4.05;76.72;98976.75;4983371;28;20049;-74
2021/01/28 11:22:21;;;;;;;10.38;6.40;;;;;;;3.93;76.51;98979.22;4995466;28;20043;-73
2021/01/28 11:24:48;;;;;;;10.80;6.78;;;;;;;4.02;76.58;98967.22;5004499;28;20136;-74
2021/01/28 11:27:14;;;;;;;12.70;7.00;;;;;;;3.92;77.11;98971.34;4992453;28;20052;-74
2021/01/28 11:29:43;;;;;;;;;;;;;;;3.89;77.70;98961.78;5003804;28;20090;-74
2021/01/28 11:32:11;;;;;;;13.63;7.10;;;;;;;4.00;77.10;98960.38;4993072;28;20447;-74
2021/01/28 11:34:37;;;;;;;12.30;6.78;;;;;;;4.18;77.46;98957.06;5011006;28;20566;-74
2021/01/28 11:37:03;;;;;;;13.43;6.60;;;;;;;4.23;76.21;98954.59;4979206;28;20066;-73
2021/01/28 11:39:30;;;;;;;17.27;6.35;;;;;;;4.08;77.20;98948.56;5026658;28;20481;-74
2021/01/28 11:41:56;;;;;;;12.43;6.57;;;;;;;4.13;77.43;98940.69;5024832;28;20464;-74
2021/01/28 11:44:23;;;;;;;10.68;6.68;;;;;;;3.99;77.32;98940.69;4985389;28;20050;-75
2021/01/28 11:46:49;;;;;;;11.70;6.53;;;;;;;3.93;78.20;98944.19;5023675;28;20053;-73
2021/01/28 11:49:16;;;;;;;11.65;7.18;;;;;;;3.96;78.89;98937.56;5008877;28;20046;-73
2021/01/28 11:51:42;;;;;;;11.75;7.03;;;;;;;4.00;79.58;98931.56;5011393;28;20054;-73
2021/01/28 11:54:10;;;;;;;12.88;7.22;;;;;;;4.07;80.19;98931.56;4949797;28;20048;-74
2021/01/28 11:56:37;;;;;;;11.88;6.95;;;;;;;4.02;79.90;98928.66;5047794;28;20045;-73
2021/01/28 11:59:03;;;;;;;12.70;6.78;;;;;;;4.06;80.90;98921.00;4996764;28;20057;-74
2021/01/28 12:01:30;;;;;;;12.48;7.47;;;;;;;4.13;82.48;98919.13;5013557;28;20081;-74
2021/01/28 12:04:04;;;;;;;11.65;6.40;;;;;;;4.02;81.14;98913.31;5014007;28;20050;-74
2021/01/28 12:06:30;;;;;;;12.52;7.22;;;;;;;3.99;82.84;98912.91;4976164;28;20030;-74
2021/01/28 12:08:56;;;;;;;11.02;6.93;;;;;;;3.96;82.66;98914.13;4981329;28;20074;-74
2021/01/28 12:11:23;;;;;;;11.50;6.72;;;;;;;3.91;82.42;98899.59;5041155;28;20091;-73
2021/01/28 12:13:53;;;;;;;13.32;7.43;;;;;;;3.95;83.42;98900.88;4996150;28;20053;-74
2021/01/28 12:16:19;;;;;;;11.80;6.82;;;;;;;3.97;83.15;98898.78;5006954;28;20596;-73
2021/01/28 12:18:46;;;;;;;11.85;6.82;;;;;;;3.87;84.39;98909.13;5008438;28;20444;-74
2021/01/28 12:21:13;;;;;;;14.10;7.00;;;;;;;3.78;84.65;98900.44;4985408;28;20144;-74
2021/01/28 12:23:39;;;;;;;15.23;6.25;;;;;;;3.73;84.49;98894.84;5016635;28;20558;-74
2021/01/28 12:26:05;;;;;;;10.55;6.45;;;;;;;3.64;84.55;98894.19;4999733;28;20054;-74
2021/01/28 12:28:32;;;;;;;12.13;6.57;;;;;;;3.86;84.19;98892.13;5038753;28;20490;-74